Time;durP1;ratioP1;P1;durP2;ratioP2;P2;SDS_P1;SDS_P2;PMS_P1;PMS_P2;Temp;Humidity;BMP_temperature;BMP_pressure;BME280_temperature;BME280_humidity;BME280_pressure;Samples;Min_cycle;Max_cycle;Signal;HPM_P1;HPM_P2
2022/07/20 00:01:52;;;;;;;5.53;2.42;;;20.60;71.20;;;;;;5012260;28;20026;-58
2022/07/20 00:04:17;;;;;;;6.40;2.90;;;20.50;72.00;;;;;;5012722;28;20130;-56
2022/07/20 00:06:43;;;;;;;14.60;3.30;;;20.40;71.80;;;;;;5012473;28;20030;-56
2022/07/20 00:11:53;;;;;;;5.38;2.60;;;20.30;72.80;;;;;;5012778;28;20115;-52
2022/07/20 00:14:19;;;;;;;4.53;2.40;;;20.20;74.50;;;;;;5012352;28;20034;-54
2022/07/20 00:16:45;;;;;;;11.15;2.70;;;20.10;75.50;;;;;;5012001;28;20026;-56
2022/07/20 00:19:11;;;;;;;15.85;2.88;;;19.90;75.60;;;;;;5012402;28;20377;-55
2022/07/20 00:21:37;;;;;;;7.13;2.60;;;19.80;76.70;;;;;;5012367;28;20026;-56
2022/07/20 00:24:02;;;;;;;7.80;3.20;;;19.70;76.90;;;;;;5012366;28;20061;-57
2022/07/20 00:26:28;;;;;;;13.13;2.50;;;19.60;77.40;;;;;;5012351;28;20496;-56
2022/07/20 00:28:54;;;;;;;7.43;2.97;;;19.50;76.90;;;;;;5012025;28;20469;-56
2022/07/20 00:31:20;;;;;;;7.38;3.13;;;19.50;76.00;;;;;;5012060;28;20476;-55
2022/07/20 00:33:48;;;;;;;6.95;2.65;;;19.50;76.20;;;;;;5011977;28;20470;-56
2022/07/20 00:36:15;;;;;;;6.53;2.13;;;19.50;77.70;;;;;;5012068;28;20056;-55
2022/07/20 00:38:41;;;;;;;8.55;2.58;;;19.50;76.50;;;;;;5011937;28;20018;-58
2022/07/20 00:41:06;;;;;;;8.40;3.42;;;19.30;76.90;;;;;;5012113;28;20026;-57
2022/07/20 00:43:55;;;;;;;6.97;2.65;;;19.40;77.40;;;;;;5011779;28;20125;-54
2022/07/20 00:46:21;;;;;;;8.00;2.85;;;19.20;77.90;;;;;;5006307;28;20045;-57
2022/07/20 00:48:47;;;;;;;7.38;2.95;;;19.10;78.60;;;;;;5011828;28;20403;-58
2022/07/20 00:51:13;;;;;;;7.32;3.03;;;19.00;80.00;;;;;;5011748;28;20041;-57
2022/07/20 00:53:40;;;;;;;9.70;3.17;;;18.80;81.00;;;;;;5011817;28;20025;-57
2022/07/20 00:56:07;;;;;;;6.85;2.97;;;18.70;82.40;;;;;;5011794;28;20101;-58
2022/07/20 00:58:33;;;;;;;10.43;3.20;;;18.50;83.80;;;;;;5011661;28;20017;-55
2022/07/20 01:00:59;;;;;;;6.40;2.80;;;18.40;84.70;;;;;;5011678;28;20026;-56
2022/07/20 01:03:24;;;;;;;11.35;3.45;;;18.30;86.70;;;;;;5011294;28;20393;-56
2022/07/20 01:05:50;;;;;;;8.60;2.78;;;18.30;88.30;;;;;;5011461;28;20037;-54
2022/07/20 01:08:16;;;;;;;7.10;2.95;;;18.20;89.40;;;;;;5011399;28;20088;-54
2022/07/20 01:10:41;;;;;;;17.70;3.95;;;18.10;91.40;;;;;;5010764;28;20052;-51
2022/07/20 01:13:07;;;;;;;7.75;2.65;;;18.00;92.30;;;;;;5012270;28;20026;-53
2022/07/20 01:15:33;;;;;;;9.32;3.13;;;17.80;93.20;;;;;;5011864;28;20030;-59
2022/07/20 01:17:58;;;;;;;7.78;3.22;;;17.70;94.60;;;;;;5012155;28;20030;-57
2022/07/20 01:20:25;;;;;;;6.25;2.63;;;17.60;95.70;;;;;;5011536;28;20026;-54
2022/07/20 01:22:51;;;;;;;10.15;3.30;;;17.50;97.30;;;;;;5011644;28;20018;-57
2022/07/20 01:25:17;;;;;;;7.68;2.90;;;17.40;98.30;;;;;;5011201;28;20113;-55
2022/07/20 01:27:43;;;;;;;12.00;3.35;;;17.40;99.20;;;;;;5011431;28;20022;-55
2022/07/20 01:30:09;;;;;;;7.40;3.40;;;17.20;99.90;;;;;;5011606;28;20033;-58
2022/07/20 01:32:35;;;;;;;11.30;4.00;;;17.10;99.90;;;;;;5010058;28;20547;-53
2022/07/20 01:35:01;;;;;;;4.43;2.85;;;17.10;99.90;;;;;;5011261;28;20030;-51
2022/07/20 01:37:28;;;;;;;10.13;3.80;;;17.00;99.90;;;;;;5011743;28;20034;-54
2022/07/20 01:39:53;;;;;;;5.50;2.92;;;16.90;99.90;;;;;;5011183;28;20393;-54
2022/07/20 01:42:19;;;;;;;4.32;2.88;;;16.90;99.90;;;;;;5011663;28;20018;-58
2022/07/20 01:44:45;;;;;;;7.70;3.40;;;16.90;99.90;;;;;;5011276;28;20046;-58
2022/07/20 01:47:11;;;;;;;6.07;3.17;;;16.90;99.90;;;;;;5011508;28;20034;-56
2022/07/20 01:49:36;;;;;;;4.13;2.60;;;16.80;99.90;;;;;;5011047;28;20030;-57
2022/07/20 01:52:02;;;;;;;3.42;2.67;;;16.80;99.90;;;;;;5011199;28;20088;-57
2022/07/20 01:54:28;;;;;;;9.85;3.10;;;16.80;99.90;;;;;;5011014;28;20030;-56
2022/07/20 01:56:53;;;;;;;9.90;3.33;;;16.80;99.90;;;;;;5011346;28;20511;-54
2022/07/20 01:59:19;;;;;;;13.73;3.42;;;16.80;99.90;;;;;;5011260;28;20596;-57
2022/07/20 02:01:45;;;;;;;6.03;3.33;;;16.80;99.90;;;;;;5011123;28;20116;-56
2022/07/20 02:04:10;;;;;;;5.45;3.13;;;16.90;99.90;;;;;;5011139;28;20022;-56
2022/07/20 02:06:36;;;;;;;7.72;3.38;;;17.00;99.90;;;;;;5011050;28;20561;-54
2022/07/20 02:09:02;;;;;;;13.45;2.90;;;17.10;99.90;;;;;;5011112;28;20053;-52
2022/07/20 02:11:29;;;;;;;13.75;3.47;;;17.10;99.90;;;;;;5010973;28;20079;-57
2022/07/20 02:13:55;;;;;;;8.52;4.18;;;17.10;99.90;;;;;;5011015;28;20463;-55
2022/07/20 02:16:21;;;;;;;9.25;3.78;;;17.10;99.90;;;;;;5011145;28;20113;-56
2022/07/20 02:18:55;;;;;;;8.30;3.65;;;17.10;99.90;;;;;;5010360;28;20026;-57
2022/07/20 02:21:22;;;;;;;7.18;3.47;;;17.00;99.90;;;;;;5014576;28;20040;-54
2022/07/20 02:23:49;;;;;;;9.65;3.53;;;16.90;99.90;;;;;;5014231;28;20608;-55
2022/07/20 02:26:14;;;;;;;5.93;3.15;;;16.80;99.90;;;;;;5014430;28;20390;-56
2022/07/20 02:28:40;;;;;;;17.05;3.17;;;17.00;99.90;;;;;;5014275;28;20037;-55
2022/07/20 02:31:06;;;;;;;3.90;3.10;;;17.00;99.90;;;;;;5014541;28;20665;-53
2022/07/20 02:33:32;;;;;;;17.50;3.72;;;17.00;99.90;;;;;;5014332;28;20081;-56
2022/07/20 02:35:58;;;;;;;4.97;3.28;;;17.00;99.90;;;;;;5014220;28;20057;-57
2022/07/20 02:38:24;;;;;;;10.57;3.50;;;17.10;99.90;;;;;;5014186;28;20026;-52
2022/07/20 02:40:50;;;;;;;6.10;3.05;;;17.10;99.90;;;;;;5013739;28;20022;-55
2022/07/20 02:43:16;;;;;;;15.18;3.90;;;17.10;99.90;;;;;;5014187;28;20038;-56
2022/07/20 02:45:42;;;;;;;7.43;3.15;;;17.10;99.90;;;;;;5013882;28;20436;-53
2022/07/20 02:48:07;;;;;;;9.93;4.68;;;17.10;99.90;;;;;;5014147;28;20030;-56
2022/07/20 02:50:36;;;;;;;8.15;3.50;;;17.00;99.90;;;;;;5013804;28;20044;-58
2022/07/20 02:53:03;;;;;;;5.40;4.00;;;16.80;99.90;;;;;;5013703;28;20014;-53
2022/07/20 02:55:29;;;;;;;9.02;3.80;;;16.70;99.90;;;;;;5013987;28;20030;-55
2022/07/20 02:57:54;;;;;;;10.45;3.35;;;16.70;99.90;;;;;;5014168;28;20033;-52
2022/07/20 03:00:21;;;;;;;3.80;3.30;;;16.60;99.90;;;;;;5013584;28;20037;-55
2022/07/20 03:02:47;;;;;;;5.70;3.95;;;16.60;99.90;;;;;;5013531;28;20056;-54
2022/07/20 03:05:16;;;;;;;8.70;4.07;;;16.60;99.90;;;;;;5013691;28;20041;-56
2022/07/20 03:07:42;;;;;;;8.38;3.67;;;16.60;99.90;;;;;;5013367;28;20433;-55
2022/07/20 03:10:08;;;;;;;11.85;3.78;;;16.60;99.90;;;;;;5013511;28;20145;-56
2022/07/20 03:12:34;;;;;;;12.73;4.18;;;16.40;99.90;;;;;;5013651;28;20033;-52
2022/07/20 03:15:00;;;;;;;7.30;3.75;;;16.40;99.90;;;;;;5013443;28;20029;-54
2022/07/20 03:17:26;;;;;;;13.68;3.90;;;16.30;99.90;;;;;;5012194;28;20547;-55
2022/07/20 03:19:52;;;;;;;7.65;3.70;;;16.20;99.90;;;;;;5013115;28;20037;-54
2022/07/20 03:22:17;;;;;;;8.77;3.55;;;16.10;99.90;;;;;;5013183;28;20448;-53
2022/07/20 03:24:43;;;;;;;5.38;3.75;;;16.10;99.90;;;;;;5012829;28;20097;-56
2022/07/20 03:27:09;;;;;;;15.77;3.47;;;15.90;99.90;;;;;;5013221;28;20026;-51
2022/07/20 03:29:35;;;;;;;4.25;3.40;;;15.90;99.90;;;;;;5013401;28;20022;-55
2022/07/20 03:32:02;;;;;;;4.85;3.42;;;15.80;99.90;;;;;;5013558;28;20030;-52
2022/07/20 03:34:28;;;;;;;11.20;4.25;;;15.80;99.90;;;;;;5013324;28;20362;-54
2022/07/20 03:36:54;;;;;;;13.30;4.97;;;15.80;99.90;;;;;;5012924;28;20088;-56
2022/07/20 03:39:19;;;;;;;13.48;4.03;;;15.80;99.90;;;;;;4993758;28;20418;-55
2022/07/20 03:41:45;;;;;;;11.38;4.65;;;15.80;99.90;;;;;;5008356;28;20064;-56
2022/07/20 03:44:11;;;;;;;13.90;3.90;;;15.80;99.90;;;;;;4993448;28;20053;-56
2022/07/20 03:46:37;;;;;;;6.60;4.30;;;15.80;99.90;;;;;;4992906;28;20031;-55
2022/07/20 03:49:03;;;;;;;4.32;3.55;;;15.90;99.90;;;;;;4992702;28;20029;-54
2022/07/20 03:51:29;;;;;;;11.32;3.13;;;15.80;99.90;;;;;;4994096;28;20056;-55
2022/07/20 03:53:54;;;;;;;6.60;4.00;;;15.80;99.90;;;;;;5011334;28;20057;-56
2022/07/20 03:56:20;;;;;;;12.57;4.20;;;15.80;99.90;;;;;;5012049;28;20032;-54
2022/07/20 03:58:47;;;;;;;10.93;3.95;;;15.90;99.90;;;;;;5012063;28;20022;-56
2022/07/20 04:01:12;;;;;;;9.27;3.05;;;15.90;99.90;;;;;;5011534;28;20030;-58
2022/07/20 04:03:38;;;;;;;6.55;3.92;;;15.90;99.90;;;;;;5012027;28;20052;-54
2022/07/20 04:06:04;;;;;;;7.95;3.70;;;16.00;99.90;;;;;;5011649;28;20022;-51
2022/07/20 04:08:29;;;;;;;7.10;3.90;;;15.90;99.90;;;;;;5011841;28;20050;-53
2022/07/20 04:10:55;;;;;;;8.23;3.55;;;15.90;99.90;;;;;;5011639;28;20065;-56
2022/07/20 04:13:21;;;;;;;4.97;4.15;;;16.00;99.90;;;;;;5011097;28;20029;-55
2022/07/20 04:15:47;;;;;;;20.10;4.63;;;16.00;99.90;;;;;;5011636;28;20449;-56
2022/07/20 04:18:15;;;;;;;8.15;4.15;;;16.00;99.90;;;;;;5011086;28;20021;-56
2022/07/20 04:20:41;;;;;;;7.20;4.20;;;16.10;99.90;;;;;;5012291;28;20039;-55
2022/07/20 04:23:07;;;;;;;7.38;4.18;;;16.20;99.90;;;;;;5011874;28;20370;-52
2022/07/20 04:25:33;;;;;;;4.70;3.75;;;16.30;99.90;;;;;;5012172;28;20038;-54
2022/07/20 04:27:59;;;;;;;7.78;3.78;;;16.40;99.90;;;;;;5012206;28;20034;-54
2022/07/20 04:30:24;;;;;;;9.93;4.13;;;16.30;99.90;;;;;;5012327;28;20149;-55
2022/07/20 04:32:50;;;;;;;5.70;3.83;;;16.30;99.90;;;;;;5012011;28;20045;-56
2022/07/20 04:35:16;;;;;;;11.52;4.40;;;16.40;99.90;;;;;;5012074;28;20026;-53
2022/07/20 04:37:41;;;;;;;9.82;4.78;;;16.40;99.90;;;;;;5010481;28;20092;-52
2022/07/20 04:40:08;;;;;;;13.10;4.88;;;16.50;99.90;;;;;;5012006;28;20353;-53
2022/07/20 04:42:33;;;;;;;14.13;5.05;;;16.60;99.90;;;;;;5011073;28;20032;-58
2022/07/20 04:44:59;;;;;;;5.88;4.25;;;16.70;99.90;;;;;;5011821;28;20050;-57
2022/07/20 04:47:25;;;;;;;7.70;4.60;;;16.80;99.90;;;;;;5012103;28;20037;-54
2022/07/20 04:49:51;;;;;;;4.80;3.78;;;16.90;99.90;;;;;;5011888;28;20018;-57
2022/07/20 04:52:17;;;;;;;5.90;4.18;;;16.90;99.90;;;;;;5011638;28;20033;-53
2022/07/20 04:54:42;;;;;;;5.20;3.55;;;16.90;99.90;;;;;;5011604;28;20076;-53
2022/07/20 04:57:08;;;;;;;6.68;4.18;;;16.80;99.90;;;;;;5011823;28;20026;-54
2022/07/20 04:59:34;;;;;;;6.28;4.43;;;16.90;99.90;;;;;;5011850;28;20030;-57
2022/07/20 05:02:00;;;;;;;6.97;4.85;;;17.10;99.90;;;;;;5011941;28;20646;-56
2022/07/20 05:04:26;;;;;;;9.55;4.45;;;17.20;99.90;;;;;;5011893;28;20030;-53
2022/07/20 05:06:51;;;;;;;9.25;4.43;;;17.30;99.90;;;;;;5011464;28;20061;-56
2022/07/20 05:09:17;;;;;;;6.53;3.90;;;17.30;99.90;;;;;;5011792;28;20690;-52
2022/07/20 05:11:43;;;;;;;9.27;4.70;;;17.30;99.90;;;;;;5011494;28;20026;-55
2022/07/20 05:14:09;;;;;;;6.82;4.65;;;17.40;99.90;;;;;;5011640;28;20030;-58
2022/07/20 05:16:35;;;;;;;19.23;4.28;;;17.50;99.90;;;;;;5011572;28;20029;-57
2022/07/20 05:19:01;;;;;;;7.82;4.55;;;17.70;99.90;;;;;;5011513;28;20033;-51
2022/07/20 05:21:26;;;;;;;10.93;5.03;;;18.00;99.90;;;;;;5011466;28;20072;-57
2022/07/20 05:23:52;;;;;;;9.07;4.25;;;18.30;99.90;;;;;;5011203;28;20401;-55
2022/07/20 05:26:18;;;;;;;6.53;3.70;;;18.50;99.90;;;;;;5010787;28;20033;-57
2022/07/20 05:28:44;;;;;;;11.20;4.65;;;18.80;99.90;;;;;;5011298;28;20489;-56
2022/07/20 05:31:13;;;;;;;8.00;4.00;;;19.00;99.90;;;;;;5011514;28;20485;-56
2022/07/20 05:33:39;;;;;;;9.57;4.18;;;19.20;99.90;;;;;;5011325;28;20014;-54
2022/07/20 05:36:05;;;;;;;10.35;4.32;;;19.40;99.90;;;;;;5010174;28;20037;-53
2022/07/20 05:38:30;;;;;;;5.95;4.15;;;19.50;99.90;;;;;;5011482;28;20433;-53
2022/07/20 05:40:56;;;;;;;12.65;3.85;;;19.70;99.90;;;;;;5011487;28;20101;-55
2022/07/20 05:43:22;;;;;;;8.98;4.30;;;19.80;99.90;;;;;;5011492;28;20054;-54
2022/07/20 05:45:48;;;;;;;11.57;3.80;;;19.90;99.90;;;;;;5011022;28;20034;-58
2022/07/20 05:48:15;;;;;;;7.95;3.83;;;20.00;99.90;;;;;;5011334;28;20072;-52
2022/07/20 05:50:46;;;;;;;9.10;3.53;;;20.10;99.90;;;;;;5009809;28;20543;-55
2022/07/20 05:53:14;;;;;;;8.68;3.65;;;20.30;99.90;;;;;;5010375;28;20072;-55
2022/07/20 05:55:41;;;;;;;5.65;3.88;;;20.40;99.90;;;;;;5014178;28;20030;-54
2022/07/20 05:58:08;;;;;;;8.07;4.30;;;20.50;99.90;;;;;;5014085;28;20029;-54
2022/07/20 06:00:35;;;;;;;5.30;3.58;;;20.50;99.90;;;;;;5014313;28;20057;-58
2022/07/20 06:03:01;;;;;;;10.27;4.38;;;20.60;99.90;;;;;;5014766;28;20022;-56
2022/07/20 06:05:27;;;;;;;4.20;3.40;;;20.70;99.90;;;;;;5013053;28;20026;-57
2022/07/20 06:08:00;;;;;;;5.60;3.55;;;20.80;99.90;;;;;;5013968;28;20501;-54
2022/07/20 06:10:31;;;;;;;18.42;3.92;;;20.90;99.90;;;;;;5014700;28;20029;-57
2022/07/20 06:12:58;;;;;;;16.83;4.53;;;21.00;99.90;;;;;;5014618;28;20042;-57
2022/07/20 06:15:25;;;;;;;7.93;3.53;;;21.10;99.90;;;;;;5014548;28;20091;-56
2022/07/20 06:17:53;;;;;;;16.23;4.43;;;21.10;99.90;;;;;;5014404;28;20025;-58
2022/07/20 06:20:18;;;;;;;5.28;3.22;;;21.20;99.90;;;;;;5014636;28;20037;-57
2022/07/20 06:22:45;;;;;;;12.52;3.85;;;21.40;99.90;;;;;;5014059;28;20083;-57
2022/07/20 06:25:13;;;;;;;9.27;4.72;;;21.50;99.90;;;;;;5014416;28;20476;-53
2022/07/20 06:27:39;;;;;;;10.25;4.88;;;21.50;99.90;;;;;;5014071;28;20029;-55
2022/07/20 06:30:06;;;;;;;7.07;3.65;;;21.50;99.90;;;;;;5012908;28;20587;-58
2022/07/20 06:32:33;;;;;;;12.90;3.83;;;21.60;99.90;;;;;;5012897;28;20026;-57
2022/07/20 06:35:01;;;;;;;8.70;3.88;;;21.70;99.90;;;;;;5013955;28;20481;-55
2022/07/20 06:37:27;;;;;;;6.15;3.65;;;21.90;99.90;;;;;;5013619;28;20409;-55
2022/07/20 06:39:53;;;;;;;7.93;3.47;;;22.10;99.90;;;;;;5012886;28;20042;-55
2022/07/20 06:42:20;;;;;;;15.25;3.85;;;22.20;99.90;;;;;;5013617;28;20026;-58
2022/07/20 06:44:47;;;;;;;4.15;3.33;;;22.20;99.90;;;;;;5013420;28;20061;-56
2022/07/20 06:47:14;;;;;;;10.50;4.47;;;22.30;99.90;;;;;;5012819;28;20034;-56
2022/07/20 06:49:41;;;;;;;11.13;4.53;;;22.30;99.90;;;;;;5013699;28;20601;-55
2022/07/20 06:52:07;;;;;;;9.93;4.28;;;22.40;99.90;;;;;;5004671;28;20058;-55
2022/07/20 06:54:33;;;;;;;7.38;4.45;;;22.40;99.90;;;;;;5005019;28;20131;-53
2022/07/20 06:56:59;;;;;;;7.00;3.88;;;22.50;99.90;;;;;;5014295;28;20026;-54
2022/07/20 06:59:25;;;;;;;13.93;3.63;;;22.70;99.90;;;;;;5012065;28;20022;-55
2022/07/20 07:01:50;;;;;;;8.50;4.57;;;22.80;99.90;;;;;;5013982;28;20037;-58
2022/07/20 07:04:16;;;;;;;14.32;4.88;;;22.80;99.90;;;;;;5014039;28;20538;-56
2022/07/20 07:06:42;;;;;;;8.75;4.22;;;23.00;99.90;;;;;;5012750;28;20499;-58
2022/07/20 07:09:09;;;;;;;5.80;3.80;;;23.10;99.90;;;;;;5014250;28;20026;-57
2022/07/20 07:11:35;;;;;;;9.05;3.97;;;23.30;99.90;;;;;;5013202;28;20440;-51
2022/07/20 07:14:01;;;;;;;5.15;3.97;;;23.50;99.30;;;;;;5013222;28;20032;-56
2022/07/20 07:16:27;;;;;;;10.05;3.88;;;23.60;99.90;;;;;;5013553;28;20509;-55
2022/07/20 07:18:52;;;;;;;4.97;3.95;;;23.70;99.70;;;;;;5013312;28;20105;-53
2022/07/20 07:21:18;;;;;;;7.63;3.40;;;23.80;98.60;;;;;;5013135;28;20037;-56
2022/07/20 07:23:49;;;;;;;6.75;3.42;;;24.00;99.10;;;;;;5012792;28;20053;-55
2022/07/20 07:26:19;;;;;;;15.07;3.70;;;24.10;99.00;;;;;;5013190;28;20032;-54
2022/07/20 07:28:45;;;;;;;7.95;4.70;;;24.10;98.00;;;;;;5013194;28;20025;-56
2022/07/20 07:31:11;;;;;;;7.15;4.40;;;24.40;99.30;;;;;;5013225;28;20512;-54
2022/07/20 07:33:38;;;;;;;5.32;3.75;;;24.50;98.20;;;;;;5013268;28;20036;-56
2022/07/20 07:36:04;;;;;;;5.28;3.67;;;24.50;97.20;;;;;;5012740;28;20041;-54
2022/07/20 07:38:30;;;;;;;12.70;4.93;;;24.50;97.00;;;;;;5012753;28;20037;-56
2022/07/20 07:40:56;;;;;;;6.63;3.60;;;24.50;97.40;;;;;;5012893;28;20076;-58
2022/07/20 07:43:21;;;;;;;8.15;4.25;;;24.60;97.20;;;;;;5012880;28;20065;-56
2022/07/20 07:45:47;;;;;;;7.72;4.18;;;24.70;96.80;;;;;;5012676;28;20022;-56
2022/07/20 07:48:13;;;;;;;5.63;3.88;;;24.70;96.50;;;;;;4982942;28;20642;-58
2022/07/20 07:50:41;;;;;;;13.57;4.60;;;24.90;97.80;;;;;;4983469;28;20065;-54
2022/07/20 07:53:07;;;;;;;5.50;3.97;;;25.00;97.20;;;;;;5001925;28;20053;-59
2022/07/20 07:55:37;;;;;;;11.93;3.70;;;25.10;97.00;;;;;;5001795;28;20529;-55
2022/07/20 07:58:04;;;;;;;8.73;4.38;;;25.20;96.40;;;;;;5001437;28;20381;-56
2022/07/20 08:00:30;;;;;;;7.32;4.40;;;25.30;96.40;;;;;;5002445;28;20045;-53
2022/07/20 08:02:55;;;;;;;9.13;4.13;;;25.50;96.30;;;;;;4999759;28;20030;-54
2022/07/20 08:05:22;;;;;;;6.63;4.18;;;25.60;95.80;;;;;;4982609;28;20481;-56
2022/07/20 08:07:48;;;;;;;11.30;4.95;;;25.80;95.50;;;;;;4982114;28;20045;-56
2022/07/20 08:10:14;;;;;;;13.60;4.82;;;25.60;94.00;;;;;;4982558;28;20030;-52
2022/07/20 08:12:40;;;;;;;13.40;5.00;;;25.90;94.60;;;;;;4981546;28;20047;-56
2022/07/20 08:15:07;;;;;;;11.20;4.60;;;26.00;95.30;;;;;;4982723;28;20033;-56
2022/07/20 08:17:33;;;;;;;9.52;4.65;;;26.00;95.40;;;;;;4981606;28;20097;-57
2022/07/20 08:19:58;;;;;;;17.05;4.50;;;26.10;93.70;;;;;;4984172;28;20377;-57
2022/07/20 08:22:24;;;;;;;7.20;4.45;;;26.10;94.20;;;;;;4981774;28;20038;-56
2022/07/20 08:24:50;;;;;;;8.60;4.05;;;26.30;94.00;;;;;;4981805;28;20038;-58
2022/07/20 08:27:15;;;;;;;7.50;4.10;;;26.50;94.50;;;;;;4982244;28;20500;-54
2022/07/20 08:29:41;;;;;;;4.43;3.97;;;26.60;93.70;;;;;;4981576;28;20038;-58
2022/07/20 08:32:07;;;;;;;11.23;4.25;;;26.70;92.90;;;;;;4989953;28;20029;-54
2022/07/20 08:34:32;;;;;;;13.90;3.95;;;26.70;92.50;;;;;;4995172;28;20044;-55
2022/07/20 08:36:58;;;;;;;7.45;4.30;;;26.80;91.80;;;;;;5011948;28;20041;-58
2022/07/20 08:39:25;;;;;;;5.57;3.78;;;26.90;92.60;;;;;;5012035;28;20477;-54
2022/07/20 08:41:51;;;;;;;10.38;4.35;;;27.00;91.90;;;;;;5011803;28;20052;-54
2022/07/20 08:44:16;;;;;;;8.10;3.65;;;27.20;92.70;;;;;;5011724;28;20042;-55
2022/07/20 08:46:44;;;;;;;7.72;4.60;;;27.30;92.80;;;;;;5011619;28;20397;-54
2022/07/20 08:49:12;;;;;;;10.90;3.90;;;27.40;92.60;;;;;;5011731;28;20366;-56
2022/07/20 08:51:41;;;;;;;6.03;4.10;;;27.50;92.90;;;;;;5011932;28;20030;-54
2022/07/20 08:54:07;;;;;;;9.50;4.82;;;27.60;92.80;;;;;;5011661;28;20030;-55
2022/07/20 08:56:34;;;;;;;12.48;4.22;;;27.70;93.10;;;;;;5012049;28;20034;-59
2022/07/20 08:58:59;;;;;;;6.63;3.70;;;27.90;92.30;;;;;;5012315;28;20030;-58
2022/07/20 09:01:26;;;;;;;9.70;4.68;;;28.00;93.00;;;;;;5011433;28;20030;-58
2022/07/20 09:04:09;;;;;;;12.63;3.78;;;28.10;91.00;;;;;;5011637;28;20462;-59
2022/07/20 09:06:35;;;;;;;15.90;4.05;;;28.20;92.60;;;;;;5011685;28;20516;-58
2022/07/20 09:09:06;;;;;;;6.32;3.83;;;28.10;93.50;;;;;;5011633;28;20026;-56
2022/07/20 09:11:33;;;;;;;11.80;4.03;;;28.50;92.90;;;;;;5011534;28;20084;-58
2022/07/20 09:13:59;;;;;;;5.40;3.55;;;28.50;91.20;;;;;;5011634;28;20097;-57
2022/07/20 09:16:40;;;;;;;9.75;3.63;;;28.50;91.20;;;;;;5010294;28;20113;-55
2022/07/20 09:19:06;;;;;;;9.45;3.95;;;28.70;91.00;;;;;;5011750;28;20018;-56
2022/07/20 09:21:33;;;;;;;15.88;3.70;;;28.60;90.20;;;;;;5011487;28;20041;-55
2022/07/20 09:24:06;;;;;;;8.90;3.90;;;28.80;91.00;;;;;;5011136;28;20036;-55
2022/07/20 09:26:33;;;;;;;7.75;4.22;;;28.90;90.50;;;;;;5011319;28;20033;-57
2022/07/20 09:29:03;;;;;;;13.30;3.72;;;28.90;88.90;;;;;;5014158;28;20021;-55
2022/07/20 09:31:33;;;;;;;7.63;3.60;;;29.10;90.00;;;;;;5015492;28;20022;-56
2022/07/20 09:34:13;;;;;;;10.88;4.25;;;29.10;89.20;;;;;;5015257;28;20042;-56
2022/07/20 09:36:47;;;;;;;9.60;3.70;;;29.20;90.50;;;;;;5015295;28;20022;-56
2022/07/20 09:39:15;;;;;;;10.73;3.95;;;29.30;90.30;;;;;;5014817;28;20038;-57
2022/07/20 09:41:51;;;;;;;5.65;3.72;;;29.30;90.20;;;;;;5015144;28;20030;-58
2022/07/20 09:44:28;;;;;;;14.68;3.80;;;29.40;89.50;;;;;;5015245;28;20050;-57
2022/07/20 09:46:55;;;;;;;17.65;3.92;;;29.50;88.50;;;;;;5014862;28;20704;-59
2022/07/20 09:49:29;;;;;;;9.25;3.92;;;29.60;90.40;;;;;;5015268;28;20414;-55
2022/07/20 09:51:59;;;;;;;10.70;3.50;;;29.80;90.40;;;;;;5014733;28;20049;-57
2022/07/20 09:54:25;;;;;;;6.22;3.78;;;29.90;88.20;;;;;;5015181;28;20022;-59
2022/07/20 09:56:52;;;;;;;6.13;3.70;;;30.10;83.70;;;;;;5014916;28;20056;-59
2022/07/20 09:59:19;;;;;;;10.90;4.03;;;30.30;86.20;;;;;;5014801;28;20022;-59
2022/07/20 10:01:55;;;;;;;15.95;4.15;;;30.30;83.00;;;;;;5014664;28;20026;-55
2022/07/20 10:04:23;;;;;;;9.50;3.95;;;30.40;82.40;;;;;;5014993;28;20034;-59
2022/07/20 10:06:50;;;;;;;6.68;3.58;;;30.40;84.50;;;;;;5014492;28;20500;-55
2022/07/20 10:09:17;;;;;;;10.02;4.18;;;30.60;85.00;;;;;;5014638;28;20026;-60
2022/07/20 10:11:44;;;;;;;27.60;3.72;;;30.70;80.40;;;;;;5014767;28;20033;-60
2022/07/20 10:14:11;;;;;;;5.45;3.40;;;30.70;79.80;;;;;;5015170;28;20400;-60
2022/07/20 10:16:49;;;;;;;17.25;4.13;;;30.90;83.20;;;;;;5014804;28;20475;-60
2022/07/20 10:19:15;;;;;;;15.77;3.70;;;31.20;82.50;;;;;;5014861;28;20018;-63
2022/07/20 10:21:46;;;;;;;7.07;3.45;;;31.30;78.90;;;;;;5014725;28;20505;-60
2022/07/20 10:24:38;;;;;;;8.80;3.53;;;31.50;80.10;;;;;;5014266;28;20030;-60
2022/07/20 10:27:18;;;;;;;9.82;3.97;;;31.50;78.80;;;;;;5007237;28;20026;-60
2022/07/20 10:29:47;;;;;;;10.98;3.78;;;31.70;78.10;;;;;;4986983;28;20046;-60
2022/07/20 10:40:22;;;;;;;11.40;3.30;;;31.90;74.70;;;;;;6043471;23;20024;-60
2022/07/20 10:51:21;;;;;;;9.38;3.15;;;32.60;75.90;;;;;;5026757;23;20533;-60
2022/07/20 10:53:46;;;;;;;16.83;3.75;;;32.60;76.80;;;;;;4979403;28;21719;-59
2022/07/20 10:56:12;;;;;;;18.60;4.35;;;32.80;74.20;;;;;;4962269;28;20038;-60
2022/07/20 10:58:42;;;;;;;6.70;3.00;;;32.90;75.00;;;;;;4964562;28;20090;-60
2022/07/20 11:01:10;;;;;;;8.55;3.83;;;33.10;76.40;;;;;;4962396;28;20037;-60
2022/07/20 11:03:44;;;;;;;8.27;3.47;;;33.20;77.00;;;;;;4962592;28;20026;-60
2022/07/20 11:06:23;;;;;;;10.85;3.83;;;33.20;72.30;;;;;;4944754;28;20089;-60
2022/07/20 11:08:59;;;;;;;4.90;3.00;;;33.30;70.80;;;;;;4962229;28;20039;-60
2022/07/20 11:11:27;;;;;;;10.07;3.83;;;33.20;69.60;;;;;;4962026;28;20110;-60
2022/07/20 11:13:57;;;;;;;6.95;4.10;;;33.10;68.00;;;;;;4964378;28;20058;-60
2022/07/20 11:16:24;;;;;;;9.55;3.70;;;33.30;68.80;;;;;;4963330;28;20786;-60
2022/07/20 11:18:51;;;;;;;5.72;3.20;;;33.50;69.80;;;;;;4961911;28;20042;-60
2022/07/20 11:21:26;;;;;;;7.25;3.28;;;33.30;68.80;;;;;;4961402;28;20026;-60
2022/07/20 11:23:52;;;;;;;11.70;3.55;;;33.30;68.90;;;;;;4961964;28;20031;-60
2022/07/20 11:26:20;;;;;;;6.07;3.65;;;33.40;70.80;;;;;;4962215;28;20038;-60
2022/07/20 11:28:47;;;;;;;5.10;3.05;;;33.60;71.00;;;;;;4964893;28;20030;-60
2022/07/20 11:31:14;;;;;;;11.48;3.35;;;33.90;70.90;;;;;;4962822;28;20441;-60
2022/07/20 11:33:42;;;;;;;15.18;3.20;;;34.00;70.60;;;;;;4961620;28;20027;-60
2022/07/20 11:36:10;;;;;;;22.17;3.97;;;34.30;70.30;;;;;;4963012;28;20038;-59
2022/07/20 11:38:37;;;;;;;6.20;3.17;;;34.40;68.90;;;;;;4963057;28;20374;-60
2022/07/20 11:41:06;;;;;;;7.25;2.80;;;34.30;67.90;;;;;;4962452;28;20523;-60
2022/07/20 11:43:32;;;;;;;9.65;3.38;;;34.40;63.70;;;;;;4962403;28;20493;-60
2022/07/20 11:46:11;;;;;;;7.20;3.53;;;34.40;66.60;;;;;;4960162;28;20042;-60
2022/07/20 11:48:37;;;;;;;13.98;3.30;;;34.30;67.30;;;;;;4962328;28;20039;-60
2022/07/20 11:51:04;;;;;;;13.02;3.95;;;34.50;65.50;;;;;;4963409;28;20573;-60
2022/07/20 11:53:36;;;;;;;10.45;3.45;;;34.60;62.90;;;;;;4963721;28;20085;-60
2022/07/20 11:56:25;;;;;;;8.77;3.10;;;34.90;65.60;;;;;;4944651;28;20034;-60
2022/07/20 11:58:54;;;;;;;8.70;3.15;;;34.90;63.00;;;;;;4965806;28;20074;-60
2022/07/20 12:01:22;;;;;;;6.70;4.00;;;34.90;64.00;;;;;;4972244;28;20471;-60
2022/07/20 12:03:51;;;;;;;10.07;3.67;;;34.80;61.80;;;;;;4973201;28;20023;-60
2022/07/20 12:06:17;;;;;;;11.50;3.35;;;34.90;63.80;;;;;;4989172;28;20026;-59
2022/07/20 12:08:43;;;;;;;13.27;3.65;;;35.40;64.50;;;;;;4992538;28;20037;-60
2022/07/20 12:11:12;;;;;;;13.18;3.67;;;35.30;61.40;;;;;;4992571;28;20474;-60
2022/07/20 12:13:50;;;;;;;5.43;2.92;;;35.80;62.70;;;;;;4992707;28;20032;-60
2022/07/20 12:16:17;;;;;;;15.90;3.45;;;36.50;61.70;;;;;;4992525;28;20415;-60
2022/07/20 12:18:46;;;;;;;7.15;3.08;;;37.20;60.30;;;;;;4975049;28;20477;-60
2022/07/20 12:21:17;;;;;;;4.80;2.85;;;38.10;57.80;;;;;;4991369;28;20022;-60
2022/07/20 12:23:55;;;;;;;9.02;3.25;;;38.20;59.00;;;;;;4992578;28;20597;-60
2022/07/20 12:26:28;;;;;;;6.22;2.70;;;38.00;53.50;;;;;;4992019;28;20038;-59
2022/07/20 12:28:56;;;;;;;10.18;2.95;;;38.40;53.40;;;;;;4990928;28;20026;-60
2022/07/20 12:31:26;;;;;;;19.30;3.10;;;38.40;53.50;;;;;;4991137;28;20047;-60
2022/07/20 12:34:12;;;;;;;7.57;2.58;;;38.50;51.80;;;;;;4991978;28;20018;-60
2022/07/20 12:36:47;;;;;;;4.90;3.03;;;38.70;52.30;;;;;;4991493;28;20077;-61
2022/07/20 12:39:15;;;;;;;15.15;3.30;;;39.30;53.50;;;;;;4991867;28;20077;-60
2022/07/20 12:41:42;;;;;;;11.43;3.08;;;39.60;50.40;;;;;;4991337;28;20026;-61
2022/07/20 12:44:27;;;;;;;11.13;3.08;;;40.10;50.00;;;;;;4991707;28;20022;-60
2022/07/20 12:46:55;;;;;;;13.60;2.83;;;40.50;47.80;;;;;;4992560;28;20030;-60
2022/07/20 12:49:33;;;;;;;15.75;3.08;;;41.20;49.10;;;;;;4999043;23;20047;-61
2022/07/20 12:51:58;;;;;;;10.05;2.72;;;40.70;46.10;;;;;;4971676;28;20031;-58
2022/07/20 12:54:25;;;;;;;5.70;2.58;;;39.90;47.40;;;;;;4972852;28;20029;-59
2022/07/20 12:56:52;;;;;;;6.53;2.58;;;40.30;48.90;;;;;;4972572;28;20042;-58
2022/07/20 12:59:18;;;;;;;9.70;2.05;;;40.70;47.50;;;;;;4972825;28;20470;-58
2022/07/20 13:01:53;;;;;;;25.20;3.53;;;40.60;45.30;;;;;;4972644;28;20081;-58
2022/07/20 13:04:23;;;;;;;7.22;2.22;;;41.10;46.20;;;;;;4972601;28;20054;-58